Flight Track Log - Related Links

Times and Time Zones

All times are in EDT time to prevent confusion due to time zone crossing. See the AAL2467 flight status page for this flight to view local times or setup timezone preferences in your user account.

Time Position Orientation Groundspeed Altitude Reporting Facility
EDT Latitude Longitude Course Direction KTS MPH feet Rate Location/Type
Thu 06:52:53 PM 32.8470 -97.0520 181° South 201 231 2,700  Level FlightAware ADS-B
Thu 06:53:18 PM 32.8200 -97.0520 180° South 233 268 3,200 1,964 Climbing FlightAware ADS-B
Thu 06:53:48 PM 32.7830 -97.0550 184° South 249 287 4,500 2,533 Climbing FlightAware ADS-B
Thu 06:54:03 PM 32.7700 -97.0630 207° Southwest 246 283 5,100 2,600 Climbing FlightAware ADS-B
Thu 06:54:18 PM 32.7600 -97.0820 238° Southwest 242 278 5,800 2,400 Climbing FlightAware ADS-B
Thu 06:54:28 PM 32.7580 -97.0940 259° West 247 284 6,100 2,550 Climbing FlightAware ADS-B
Thu 06:54:58 PM 32.7570 -97.1330 268° West 248 285 7,500 2,700 Climbing FlightAware ADS-B
Thu 06:55:28 PM 32.7550 -97.1750 267° West 251 289 8,800 2,073 Climbing FlightAware ADS-B
Thu 06:55:53 PM 32.7530 -97.2080 266° West 250 288 9,400 1,200 Climbing FlightAware ADS-B
Thu 06:56:33 PM 32.7510 -97.2690 268° West 273 314 10,100 635 Climbing FlightAware ADS-B
Thu 06:57:18 PM 32.7470 -97.3380 266° West 305 351 10,300 1,059 Climbing FlightAware ADS-B
Thu 06:57:58 PM 32.7430 -97.4120 266° West 330 380 11,600 2,400 Climbing FlightAware ADS-B
Thu 06:58:43 PM 32.7390 -97.4940 267° West 332 382 13,700 2,824 Climbing FlightAware ADS-B
Thu 06:59:23 PM 32.7350 -97.5640 266° West 334 384 15,600 2,653 Climbing FlightAware ADS-B
Thu 07:00:18 PM 32.7300 -97.6670 267° West 345 397 17,900 2,400 Climbing FlightAware ADS-B
Thu 07:01:03 PM 32.7260 -97.7530 267° West 356 410 19,600 2,080 Climbing FlightAware ADS-B
Thu 07:01:33 PM 32.7260 -97.8100 270° West 366 421 20,500 720 Climbing FlightAware ADS-B
Thu 07:02:18 PM 32.7260 -97.8910 270° West 366 421 20,500 2,147 Level FlightAware ADS-B
Thu 07:03:08 PM 32.7250 -98.0080 269° West 376 433 23,900 3,067 Climbing FlightAware ADS-B
Thu 07:03:48 PM 32.7150 -98.0900 262° West 381 438 25,100 1,725 Climbing FlightAware ADS-B
Thu 07:04:28 PM 32.7040 -98.1740 261° West 387 445 26,200 1,425 Climbing FlightAware ADS-B
Thu 07:05:08 PM 32.6940 -98.2520 261° West 395 455 27,000 1,341 Climbing FlightAware ADS-B
Thu 07:05:53 PM 32.6810 -98.3560 262° West 404 465 28,100 1,400 Climbing FlightAware ADS-B
Thu 07:06:38 PM 32.6690 -98.4560 262° West 408 470 29,100 1,624 Climbing FlightAware ADS-B
Thu 07:07:18 PM 32.6570 -98.5440 261° West 401 461 30,400 1,875 Climbing FlightAware ADS-B
Thu 07:07:58 PM 32.6460 -98.6310 261° West 393 452 31,600 1,553 Climbing FlightAware ADS-B
Thu 07:08:43 PM 32.6340 -98.7230 261° West 392 451 32,600 1,271 Climbing FlightAware ADS-B
Thu 07:09:23 PM 32.6230 -98.8090 261° West 391 450 33,400 1,341 Climbing FlightAware ADS-B
Thu 07:10:08 PM 32.6110 -98.9060 262° West 385 443 34,500 1,412 Climbing FlightAware ADS-B
Thu 07:10:48 PM 32.6000 -98.9880 261° West 379 436 35,400 1,059 Climbing FlightAware ADS-B
Thu 07:11:33 PM 32.5890 -99.0760 262° West 375 432 36,000 424 Climbing FlightAware ADS-B
Thu 07:12:13 PM 32.5770 -99.1580 260° West 377 434 36,000  Level FlightAware ADS-B
Thu 07:12:53 PM 32.5670 -99.2400 262° West 378 435 36,000  Level FlightAware ADS-B
Thu 07:13:38 PM 32.5540 -99.3330 261° West 380 437 36,000  Level FlightAware ADS-B
Thu 07:14:18 PM 32.5430 -99.4140 261° West 379 436 36,000  Level FlightAware ADS-B
Thu 07:15:03 PM 32.5310 -99.5040 261° West 376 433 36,000  Level FlightAware ADS-B
Thu 07:15:43 PM 32.5190 -99.5890 261° West 376 433 36,000  Level FlightAware ADS-B
Thu 07:16:23 PM 32.5080 -99.6700 261° West 375 432 36,000  Level FlightAware ADS-B
Thu 07:17:08 PM 32.4960 -99.7610 261° West 376 433 36,000  Level FlightAware ADS-B
Thu 07:17:48 PM 32.4840 -99.8410 260° West 375 432 36,000  Level FlightAware ADS-B
Thu 07:18:33 PM 32.4780 -99.9320 266° West 376 433 36,000  Level FlightAware ADS-B
Thu 07:19:13 PM 32.4730 -100.0140 266° West 376 433 36,000  Level FlightAware ADS-B
Thu 07:19:53 PM 32.4690 -100.0990 267° West 377 434 36,000  Level FlightAware ADS-B
Thu 07:20:38 PM 32.4640 -100.1910 266° West 379 436 36,000  Level FlightAware ADS-B
Thu 07:21:18 PM 32.4590 -100.2730 266° West 378 435 36,000  Level FlightAware ADS-B
Thu 07:21:58 PM 32.4540 -100.3560 266° West 380 437 36,000  Level FlightAware ADS-B
Thu 07:22:43 PM 32.4490 -100.4500 266° West 383 441 36,000  Level FlightAware ADS-B
Thu 07:23:23 PM 32.4440 -100.5320 266° West 384 442 36,000  Level FlightAware ADS-B
Thu 07:24:08 PM 32.4390 -100.6160 266° West 384 442 36,000  Level FlightAware ADS-B
Thu 07:24:48 PM 32.4350 -100.6880 266° West 384 442 36,000  Level FlightAware ADS-B
Thu 07:25:33 PM 32.4280 -100.8050 266° West 380 437 36,000  Level FlightAware ADS-B
Thu 07:26:08 PM 32.4240 -100.8740 266° West 380 437 36,000  Level FlightAware ADS-B
Thu 07:26:53 PM 32.4180 -100.9690 266° West 378 435 36,000  Level FlightAware ADS-B
Thu 07:27:38 PM 32.4130 -101.0630 266° West 377 434 36,000  Level FlightAware ADS-B
Thu 07:28:18 PM 32.4070 -101.1470 265° West 378 435 36,000  Level FlightAware ADS-B
Thu 07:29:03 PM 32.4010 -101.2380 266° West 378 435 36,000  Level FlightAware ADS-B
Thu 07:29:38 PM 32.3970 -101.3060 266° West 377 434 36,000  Level FlightAware ADS-B
Thu 07:30:23 PM 32.3910 -101.4030 266° West 377 434 36,000  Level FlightAware ADS-B
Thu 07:31:08 PM 32.3850 -101.4940 266° West 378 435 36,000  Level FlightAware ADS-B
Thu 07:31:48 PM 32.3790 -101.5760 265° West 379 436 36,000  Level FlightAware ADS-B
Thu 07:32:28 PM 32.3730 -101.6590 265° West 381 438 36,000  Level FlightAware ADS-B
Thu 07:33:13 PM 32.3660 -101.7540 265° West 383 441 36,000  Level FlightAware ADS-B
Thu 07:34:08 PM 32.3570 -101.8620 264° West 384 442 36,000  Level FlightAware ADS-B
Thu 07:34:53 PM 32.3500 -101.9550 265° West 385 443 36,000  Level FlightAware ADS-B
Thu 07:35:33 PM 32.3440 -102.0260 264° West 385 443 36,000  Level FlightAware ADS-B
Thu 07:36:13 PM 32.3380 -102.0970 264° West 385 443 36,000  Level FlightAware ADS-B
Thu 07:36:53 PM 32.3310 -102.1680 263° West 385 443 36,000  Level FlightAware ADS-B
Thu 07:37:33 PM 32.3250 -102.2400 264° West 385 443 36,000  Level FlightAware ADS-B
Thu 07:38:23 PM 32.3170 -102.3290 264° West 385 443 36,000  Level FlightAware ADS-B
Thu 07:39:03 PM 32.3110 -102.4000 264° West 385 443 36,000  Level FlightAware ADS-B
Thu 07:39:43 PM 32.3040 -102.4710 263° West 385 443 36,000  Level FlightAware ADS-B
Thu 07:40:23 PM 32.2980 -102.5430 264° West 385 443 36,000  Level FlightAware ADS-B
Thu 07:41:03 PM 32.2920 -102.6140 264° West 385 443 36,000  Level FlightAware ADS-B
Thu 07:41:43 PM 32.2850 -102.6850 263° West 385 443 36,000  Level FlightAware ADS-B
Thu 07:42:33 PM 32.2770 -102.7740 264° West 385 443 36,000  Level FlightAware ADS-B
Thu 07:43:13 PM 32.2710 -102.8450 264° West 385 443 36,000  Level FlightAware ADS-B
Thu 07:43:53 PM 32.2650 -102.9170 264° West 385 443 36,000  Level FlightAware ADS-B
Thu 07:45:05 PM 32.2483 -103.2172 264° West 384 442 36,000  Level Albuquerque Center
Thu 07:46:07 PM 32.2378 -103.3422 264° West 384 442 36,000  Level Albuquerque Center
Thu 07:47:09 PM 32.2261 -103.4686 264° West 386 444 36,000  Level Albuquerque Center
Thu 07:48:10 PM 32.2125 -103.6206 264° West 388 447 36,000  Level Albuquerque Center
Thu 07:49:12 PM 32.2022 -103.7456 264° West 385 443 36,000  Level Albuquerque Center
Thu 07:50:14 PM 32.1939 -103.8722 266° West 387 445 36,000  Level Albuquerque Center
Thu 07:51:15 PM 32.1811 -103.9961 263° West 384 442 36,000 -49 Level Albuquerque Center
Thu 07:52:17 PM 32.1714 -104.1125 264° West 381 438 35,900 293 Descending Albuquerque Center
Thu 07:53:18 PM 32.1572 -104.2606 264° West 380 437 36,600 683 Climbing Albuquerque Center
Thu 07:54:20 PM 32.1467 -104.3833 264° West 378 435 37,300 581 Climbing Albuquerque Center
Thu 07:55:22 PM 32.1336 -104.5058 263° West 378 435 37,800 339 Climbing Albuquerque Center
Thu 07:56:24 PM 32.1217 -104.6314 264° West 384 442 38,000 98 Climbing Albuquerque Center
Thu 07:57:25 PM 32.1083 -104.7572 263° West 384 442 38,000  Level Albuquerque Center
Thu 07:58:27 PM 32.0972 -104.8789 264° West 382 440 38,000  Level Albuquerque Center
Thu 07:59:29 PM 32.0853 -105.0044 264° West 386 444 38,000 -49 Level Albuquerque Center
Thu 08:00:30 PM 32.0692 -105.1514 263° West 382 440 37,900 -49 Descending Albuquerque Center
Thu 08:01:32 PM 32.0569 -105.2744 263° West 380 437 37,900 48 Level Albuquerque Center
Thu 08:02:34 PM 32.0450 -105.3989 264° West 383 441 38,000  Climbing Albuquerque Center
Thu 08:03:36 PM 32.0317 -105.5231 263° West 383 441 37,900  Descending Albuquerque Center
Thu 08:04:38 PM 32.0236 -105.6469 266° West 382 440 38,000 48 Climbing Albuquerque Center
Thu 08:05:40 PM 32.0519 -105.7661 286° West 378 435 38,000 -49 Level Albuquerque Center
Thu 08:06:41 PM 32.0844 -105.9117 285° West 383 441 37,900 -49 Descending Albuquerque Center
Thu 08:07:43 PM 32.1125 -106.0372 285° West 385 443 37,900 48 Level Albuquerque Center
Thu 08:08:45 PM 32.1397 -106.1589 285° West 385 443 38,000  Climbing Albuquerque Center
Thu 08:09:47 PM 32.1675 -106.2808 285° West 385 443 37,900 -48 Descending Albuquerque Center
Thu 08:10:49 PM 32.1956 -106.4028 285° West 385 443 37,900 49 Level Albuquerque Center
Thu 08:11:50 PM 32.2228 -106.5244 285° West 384 442 38,000 49 Climbing Albuquerque Center
Thu 08:12:52 PM 32.2497 -106.6469 285° West 386 444 38,000  Level Albuquerque Center
Thu 08:13:54 PM 32.2783 -106.7686 286° West 386 444 38,000  Level Albuquerque Center
Thu 08:14:56 PM 32.3097 -106.9136 284° West 387 445 38,000  Level Albuquerque Center
Thu 08:15:58 PM 32.3392 -107.0447 285° West 386 444 38,000  Level Albuquerque Center
Thu 08:16:59 PM 32.3664 -107.1686 285° West 389 448 38,000  Level Albuquerque Center
Thu 08:18:01 PM 32.3911 -107.2950 283° West 396 456 38,000  Level Albuquerque Center
Thu 08:19:03 PM 32.4164 -107.4192 284° West 394 453 38,000 -48 Level Albuquerque Center
Thu 08:20:05 PM 32.4450 -107.5461 285° West 388 447 37,900 -48 Descending Albuquerque Center
Thu 08:21:07 PM 32.4706 -107.6703 284° West 388 447 37,900 15 Level Albuquerque Center
Thu 08:26:38 PM 32.6170 -108.3590 284° West 386 444 38,000 16 Climbing FlightAware ADS-B
Thu 08:27:18 PM 32.6340 -108.4400 284° West 387 445 38,000  Level FlightAware ADS-B
Thu 08:28:03 PM 32.6540 -108.5370 284° West 388 447 38,000  Level FlightAware ADS-B
Thu 08:28:43 PM 32.6710 -108.6190 284° West 388 447 38,000  Level FlightAware ADS-B
Thu 08:29:28 PM 32.6890 -108.7090 283° West 387 445 38,000  Level FlightAware ADS-B
Thu 08:30:08 PM 32.7060 -108.7930 284° West 384 442 38,000  Level FlightAware ADS-B
Thu 08:30:48 PM 32.7230 -108.8750 284° West 379 436 38,000  Level FlightAware ADS-B
Thu 08:31:33 PM 32.7420 -108.9670 284° West 378 435 38,000  Level FlightAware ADS-B
Thu 08:32:13 PM 32.7580 -109.0480 283° West 379 436 38,000  Level FlightAware ADS-B
Thu 08:32:53 PM 32.7740 -109.1280 283° West 382 440 38,000  Level FlightAware ADS-B
Thu 08:33:38 PM 32.7920 -109.2180 283° West 383 441 38,000  Level FlightAware ADS-B
Thu 08:34:18 PM 32.8080 -109.2990 283° West 383 441 38,000  Level FlightAware ADS-B
Thu 08:35:03 PM 32.8270 -109.3950 283° West 386 444 38,000  Level FlightAware ADS-B
Thu 08:35:43 PM 32.8430 -109.4750 283° West 387 445 38,000  Level FlightAware ADS-B
Thu 08:36:23 PM 32.8590 -109.5600 283° West 389 448 38,000  Level FlightAware ADS-B
Thu 08:37:08 PM 32.8770 -109.6510 283° West 387 445 38,000  Level FlightAware ADS-B
Thu 08:37:48 PM 32.8940 -109.7340 284° West 388 447 38,000  Level FlightAware ADS-B
Thu 08:38:33 PM 32.9120 -109.8310 282° West 389 448 38,000  Level FlightAware ADS-B
Thu 08:39:13 PM 32.9280 -109.9150 283° West 389 448 38,000  Level FlightAware ADS-B
Thu 08:39:53 PM 32.9450 -109.9970 284° West 390 449 38,000  Level FlightAware ADS-B
Thu 08:40:38 PM 32.9620 -110.0900 282° West 390 449 38,000  Level FlightAware ADS-B
Thu 08:41:18 PM 32.9780 -110.1740 283° West 391 450 38,000  Level FlightAware ADS-B
Thu 08:42:03 PM 32.9960 -110.2700 283° West 390 449 38,000  Level FlightAware ADS-B
Thu 08:42:43 PM 33.0120 -110.3540 283° West 389 448 38,000  Level FlightAware ADS-B
Thu 08:43:23 PM 33.0280 -110.4350 283° West 388 447 38,000  Level FlightAware ADS-B
Thu 08:44:08 PM 33.0450 -110.5280 282° West 388 447 38,000  Level FlightAware ADS-B
Thu 08:44:48 PM 33.0610 -110.6100 283° West 385 443 38,000  Level FlightAware ADS-B
Thu 08:45:28 PM 33.0760 -110.6940 282° West 383 441 38,000  Level FlightAware ADS-B
Thu 08:46:13 PM 33.0940 -110.7890 283° West 380 437 38,000  Level FlightAware ADS-B
Thu 08:46:53 PM 33.1090 -110.8690 283° West 378 435 38,000  Level FlightAware ADS-B
Thu 08:47:38 PM 33.1260 -110.9600 283° West 378 435 38,000  Level FlightAware ADS-B
Thu 08:48:23 PM 33.1420 -111.0500 282° West 378 435 38,000  Level FlightAware ADS-B
Thu 08:49:03 PM 33.1570 -111.1320 282° West 378 435 38,000  Level FlightAware ADS-B
Thu 08:49:43 PM 33.1720 -111.2140 282° West 377 434 38,000  Level FlightAware ADS-B
Thu 08:50:28 PM 33.1890 -111.3080 282° West 377 434 38,000  Level FlightAware ADS-B
Thu 08:51:08 PM 33.2030 -111.3850 282° West 376 433 38,000  Level FlightAware ADS-B
Thu 08:51:53 PM 33.2200 -111.4780 282° West 376 433 38,000  Level FlightAware ADS-B
Thu 08:52:33 PM 33.2340 -111.5590 282° West 376 433 38,000  Level FlightAware ADS-B
Thu 08:53:13 PM 33.2480 -111.6400 282° West 376 433 38,000  Level FlightAware ADS-B
Thu 08:54:13 PM 33.2480 -111.7620 270° West 379 436 38,000  Level FlightAware ADS-B
Thu 08:54:53 PM 33.2340 -111.8450 259° West 380 437 38,000  Level FlightAware ADS-B
Thu 08:55:38 PM 33.2190 -111.9390 259° West 381 438 38,000  Level FlightAware ADS-B
Thu 08:56:18 PM 33.2050 -112.0220 259° West 381 438 38,000  Level FlightAware ADS-B
Thu 08:57:03 PM 33.2030 -112.1080 268° West 380 437 38,000  Level FlightAware ADS-B
Thu 08:57:43 PM 33.2290 -112.1870 291° West 383 441 38,000  Level FlightAware ADS-B
Thu 08:58:23 PM 33.2570 -112.2650 293° West 385 443 38,000  Level FlightAware ADS-B
Thu 08:59:03 PM 33.2860 -112.3470 293° West 386 444 38,000  Level FlightAware ADS-B
Thu 08:59:48 PM 33.3180 -112.4380 293° West 387 445 38,000  Level FlightAware ADS-B
Thu 09:00:28 PM 33.3440 -112.5120 293° West 389 448 38,000  Level FlightAware ADS-B
Thu 09:01:13 PM 33.3760 -112.6040 293° West 389 448 38,000  Level FlightAware ADS-B
Thu 09:01:53 PM 33.4050 -112.6850 293° West 390 449 38,000  Level FlightAware ADS-B
Thu 09:02:38 PM 33.4360 -112.7740 293° West 392 451 38,000  Level FlightAware ADS-B
Thu 09:03:18 PM 33.4630 -112.8520 293° West 390 449 38,000  Level FlightAware ADS-B
Thu 09:03:58 PM 33.4900 -112.9270 293° West 389 448 38,000  Level FlightAware ADS-B
Thu 09:04:43 PM 33.5230 -113.0190 293° West 389 448 38,000  Level FlightAware ADS-B
Thu 09:05:23 PM 33.5520 -113.0990 294° West 386 444 38,000  Level FlightAware ADS-B
Thu 09:06:08 PM 33.5830 -113.1880 293° West 386 444 38,000  Level FlightAware ADS-B
Thu 09:06:48 PM 33.6120 -113.2680 294° West 381 438 38,000  Level FlightAware ADS-B
Thu 09:07:28 PM 33.6390 -113.3440 293° West 366 421 38,000  Level FlightAware ADS-B
Thu 09:08:13 PM 33.6680 -113.4290 292° West 367 422 38,000  Level FlightAware ADS-B
Thu 09:08:53 PM 33.6950 -113.5030 294° West 367 422 38,000  Level FlightAware ADS-B
Thu 09:09:28 PM 33.7180 -113.5710 292° West 366 421 38,000  Level FlightAware ADS-B
Thu 09:10:18 PM 33.7510 -113.6630 293° West 365 420 38,000  Level FlightAware ADS-B
Thu 09:10:58 PM 33.7750 -113.7310 293° West 361 415 38,000  Level FlightAware ADS-B
Thu 09:11:48 PM 33.8040 -113.8180 292° West 357 411 38,000  Level FlightAware ADS-B
Thu 09:12:38 PM 33.8430 -113.9260 294° West 383 441 38,000  Level FlightAware ADS-B
Thu 09:13:18 PM 33.8680 -114.0070 290° West 382 440 38,000  Level FlightAware ADS-B
Thu 09:13:58 PM 33.8810 -114.0860 281° West 381 438 38,000  Level FlightAware ADS-B
Thu 09:14:43 PM 33.8930 -114.1760 279° West 380 437 38,000  Level FlightAware ADS-B
Thu 09:15:23 PM 33.9020 -114.2470 279° West 380 437 38,000  Level FlightAware ADS-B
Thu 09:16:03 PM 33.9120 -114.3190 280° West 380 437 38,000  Level FlightAware ADS-B
Thu 09:16:43 PM 33.9210 -114.3900 279° West 380 437 38,000  Level FlightAware ADS-B
Thu 09:17:33 PM 33.9330 -114.4790 279° West 380 437 38,000  Level FlightAware ADS-B
Thu 09:18:13 PM 33.9420 -114.5500 279° West 380 437 38,000  Level FlightAware ADS-B
Thu 09:18:53 PM 33.9510 -114.6210 279° West 380 437 38,000  Level FlightAware ADS-B
Thu 09:19:33 PM 33.9610 -114.6920 280° West 380 437 38,000  Level FlightAware ADS-B
Thu 09:20:13 PM 33.9700 -114.7630 279° West 380 437 38,000  Level FlightAware ADS-B
Thu 09:21:03 PM 33.9820 -114.8520 279° West 380 437 38,000  Level FlightAware ADS-B
Thu 09:21:43 PM 33.9910 -114.9240 279° West 380 437 38,000  Level FlightAware ADS-B
Thu 09:22:23 PM 34.0000 -114.9950 279° West 380 437 38,000  Level FlightAware ADS-B
Thu 09:23:08 PM 34.0400 -115.2240 282° West 386 444 38,000  Level FlightAware ADS-B
Thu 09:23:48 PM 34.0490 -115.2970 278° West 386 444 38,000  Level FlightAware ADS-B
Thu 09:24:33 PM 34.0650 -115.4100 280° West 385 443 38,000  Level FlightAware ADS-B
Thu 09:25:03 PM 34.0720 -115.4680 278° West 386 444 38,000  Level FlightAware ADS-B
Thu 09:25:58 PM 34.0860 -115.5730 279° West 386 444 38,000 -821 Level FlightAware ADS-B
Thu 09:26:38 PM 34.1000 -115.6740 280° West 377 434 36,700 -1,425 Descending FlightAware ADS-B
Thu 09:27:18 PM 34.1090 -115.7550 278° West 365 420 36,100 -918 Descending FlightAware ADS-B
Thu 09:28:03 PM 34.1020 -115.8420 264° West 364 419 35,400 -975 Descending FlightAware ADS-B
Thu 09:28:38 PM 34.0910 -115.9150 260° West 366 421 34,800 -975 Descending FlightAware ADS-B
Thu 09:29:23 PM 34.0770 -116.0070 260° West 369 425 34,100 -933 Descending FlightAware ADS-B
Thu 09:30:08 PM 34.0640 -116.0970 260° West 375 432 33,400 -988 Descending FlightAware ADS-B
Thu 09:30:48 PM 34.0510 -116.1830 260° West 384 442 32,700 -1,412 Descending FlightAware ADS-B
Thu 09:31:33 PM 34.0370 -116.2790 260° West 381 438 31,400 -1,906 Descending FlightAware ADS-B
Thu 09:32:13 PM 34.0250 -116.3580 260° West 370 426 30,000 -2,100 Descending FlightAware ADS-B
Thu 09:32:53 PM 34.0120 -116.4430 260° West 373 429 28,600 -2,118 Descending FlightAware ADS-B
Thu 09:33:38 PM 34.0020 -116.5330 262° West 370 426 27,000 -2,118 Descending FlightAware ADS-B
Thu 09:34:18 PM 33.9950 -116.6140 264° West 367 422 25,600 -2,118 Descending FlightAware ADS-B
Thu 09:35:03 PM 33.9870 -116.7080 264° West 365 420 24,000 -2,047 Descending FlightAware ADS-B
Thu 09:35:43 PM 33.9810 -116.7870 265° West 364 419 22,700 -1,976 Descending FlightAware ADS-B
Thu 09:36:28 PM 33.9740 -116.8760 265° West 361 415 21,200 -2,047 Descending FlightAware ADS-B
Thu 09:37:08 PM 33.9670 -116.9570 264° West 357 411 19,800 -2,025 Descending FlightAware ADS-B
Thu 09:37:48 PM 33.9610 -117.0310 264° West 353 406 18,500 -1,976 Descending FlightAware ADS-B
Thu 09:38:33 PM 33.9530 -117.1240 264° West 351 404 17,000 -1,482 Descending FlightAware ADS-B
Thu 09:39:13 PM 33.9470 -117.2020 265° West 354 407 16,400 -918 Descending FlightAware ADS-B
Thu 09:39:58 PM 33.9390 -117.2890 264° West 353 406 15,700 -900 Descending FlightAware ADS-B
Thu 09:40:33 PM 33.9340 -117.3580 265° West 340 391 15,200 -825 Descending FlightAware ADS-B
Thu 09:41:18 PM 33.9540 -117.4370 287° West 345 397 14,600 -1,133 Descending FlightAware ADS-B
Thu 09:42:03 PM 33.9830 -117.5190 293° West 347 399 13,500 -1,835 Descending FlightAware ADS-B
Thu 09:42:43 PM 34.0080 -117.5880 294° West 345 397 12,000 -2,182 Descending FlightAware ADS-B
Thu 09:42:58 PM 34.0120 -117.6160 280° West 342 394 11,500 -1,855 Descending FlightAware ADS-B
Thu 09:43:38 PM 34.0060 -117.6900 264° West 321 369 10,300 -1,457 Descending FlightAware ADS-B
Thu 09:44:08 PM 34.0010 -117.7390 263° West 299 344 9,800 -1,100 Descending FlightAware ADS-B
Thu 09:44:38 PM 33.9970 -117.7890 265° West 284 327 9,200 -1,418 Descending FlightAware ADS-B
Thu 09:45:03 PM 33.9930 -117.8290 263° West 276 318 8,500 -1,745 Descending FlightAware ADS-B
Thu 09:45:33 PM 33.9880 -117.8750 263° West 272 313 7,600 -1,636 Descending FlightAware ADS-B
Thu 09:45:58 PM 33.9850 -117.9100 264° West 271 312 7,000 -1,200 Descending FlightAware ADS-B
Thu 09:46:28 PM 33.9800 -117.9550 262° West 266 306 6,500 -1,000 Descending FlightAware ADS-B
Thu 09:46:58 PM 33.9760 -117.9990 264° West 263 303 6,000 -982 Descending FlightAware ADS-B
Thu 09:47:23 PM 33.9720 -118.0360 263° West 247 284 5,600 -873 Descending FlightAware ADS-B
Thu 09:47:53 PM 33.9680 -118.0750 263° West 233 268 5,200 -873 Descending FlightAware ADS-B
Thu 09:48:18 PM 33.9660 -118.1050 265° West 226 260 4,800 -1,200 Descending FlightAware ADS-B
Thu 09:48:48 PM 33.9620 -118.1430 263° West 224 258 4,100 -1,309 Descending FlightAware ADS-B
Thu 09:49:13 PM 33.9580 -118.1750 261° West 220 253 3,600 -1,200 Descending FlightAware ADS-B
Thu 09:49:43 PM 33.9550 -118.2110 264° West 219 252 3,000 -1,100 Descending FlightAware ADS-B
Thu 09:50:13 PM 33.9510 -118.2470 262° West 216 249 2,500 -1,050 Descending FlightAware ADS-B
Thu 09:50:23 PM 33.9500 -118.2580 264° West 216 249 2,300 -533 Descending FlightAware ADS-B
Thu 09:50:58 PM 33.9460 -118.2960 263° West 216 249 2,100 -343 Descending FlightAware ADS-B

Login

Don't have an account? Register now (free) for customized features, flight alerts, and more!